Time;durP1;ratioP1;P1;durP2;ratioP2;P2;SDS_P1;SDS_P2;PMS_P1;PMS_P2;Temp;Humidity;BMP_temperature;BMP_pressure;BME280_temperature;BME280_humidity;BME280_pressure;Samples;Min_cycle;Max_cycle;Signal;HPM_P1;HPM_P2
2024/02/09 00:01:12;;;;;;;10.80;4.05;;;;;;;12.46;100.00;98127.81;5068670;28;20059;-94
2024/02/09 00:03:38;;;;;;;8.10;4.13;;;;;;;12.44;100.00;98116.34;5068308;28;20036;-94
2024/02/09 00:06:06;;;;;;;9.55;4.90;;;;;;;12.67;100.00;98155.31;5070385;28;20056;-94
2024/02/09 00:08:32;;;;;;;11.07;4.68;;;;;;;12.61;100.00;98152.94;5067501;28;20040;-94
2024/02/09 00:10:58;;;;;;;9.98;4.85;;;;;;;12.62;100.00;98169.78;5066268;28;20041;-94
2024/02/09 00:13:25;;;;;;;10.30;4.68;;;;;;;12.49;100.00;98146.34;5066952;28;20044;-93
2024/02/09 00:15:53;;;;;;;11.38;4.68;;;;;;;12.59;100.00;98153.94;5061230;28;20630;-93
2024/02/09 00:18:19;;;;;;;8.77;4.75;;;;;;;12.69;100.00;98157.94;5067583;28;20032;-92
2024/02/09 00:20:46;;;;;;;12.02;4.70;;;;;;;12.33;100.00;98114.16;5073588;28;20108;-94
2024/02/09 00:23:12;;;;;;;10.32;4.90;;;;;;;12.51;100.00;98133.81;5065403;28;20425;-93
2024/02/09 00:25:38;;;;;;;12.38;5.35;;;;;;;12.55;100.00;98134.53;5068138;28;20462;-93
2024/02/09 00:28:05;;;;;;;7.78;4.15;;;;;;;12.60;100.00;98147.66;5069430;28;20135;-94
2024/02/09 00:30:38;;;;;;;11.95;5.75;;;;;;;12.66;100.00;98144.72;5061547;28;20098;-93
2024/02/09 00:33:05;;;;;;;16.02;6.22;;;;;;;12.53;100.00;98117.72;5069536;28;20494;-92
2024/02/09 00:35:30;;;;;;;25.60;7.75;;;;;;;12.48;100.00;98109.09;5064640;28;20033;-93
2024/02/09 00:37:56;;;;;;;17.30;6.35;;;;;;;12.37;100.00;98098.91;5063688;28;20090;-93
2024/02/09 00:40:24;;;;;;;15.23;5.72;;;;;;;12.42;100.00;98104.88;5063876;28;20548;-93
2024/02/09 00:42:51;;;;;;;11.05;5.30;;;;;;;12.52;100.00;98127.53;5064897;28;20489;-92
2024/02/09 00:45:17;;;;;;;8.65;4.40;;;;;;;12.60;100.00;98136.97;5064073;28;20091;-93
2024/02/09 00:47:47;;;;;;;12.68;5.00;;;;;;;12.58;100.00;98147.75;5064371;28;20101;-93
2024/02/09 00:50:17;;;;;;;14.00;6.28;;;;;;;12.47;100.00;98118.91;5064062;28;20045;-91
2024/02/09 00:52:48;;;;;;;10.32;5.15;;;;;;;12.60;100.00;98136.97;5065315;28;20120;-92
2024/02/09 00:55:14;;;;;;;13.07;5.10;;;;;;;12.43;100.00;98117.28;5061521;28;20432;-93
2024/02/09 00:57:40;;;;;;;7.38;4.65;;;;;;;12.37;100.00;98106.03;5064540;28;20071;-92
2024/02/09 01:00:09;;;;;;;7.95;4.03;;;;;;;12.17;100.00;98065.16;5063788;28;20044;-94
2024/02/09 01:02:34;;;;;;;9.73;4.03;;;;;;;12.36;100.00;98093.63;5065316;28;20024;-93
2024/02/09 01:05:03;;;;;;;11.75;4.50;;;;;;;12.35;100.00;98090.09;5062468;28;20058;-94
2024/02/09 01:07:29;;;;;;;9.18;4.80;;;;;;;12.48;100.00;98112.59;5066228;28;20064;-92
2024/02/09 01:09:57;;;;;;;10.35;4.47;;;;;;;12.29;100.00;98067.25;5063237;28;20049;-94
2024/02/09 02:45:48;;;;;;;13.23;4.38;;;;;;;11.81;100.00;98015.19;5145107;27;20854;-95
2024/02/09 03:06:12;;;;;;;8.75;4.38;;;;;;;11.47;100.00;98006.00;5199352;27;20374;-93
2024/02/09 03:08:38;;;;;;;8.98;3.92;;;;;;;11.59;100.00;98019.72;5173789;27;20045;-93
2024/02/09 03:11:06;;;;;;;5.72;3.63;;;;;;;11.58;100.00;98018.88;5173165;27;20043;-95
2024/02/09 03:13:32;;;;;;;11.55;4.45;;;;;;;11.47;100.00;98003.34;5173695;27;20391;-94
2024/02/09 03:15:58;;;;;;;9.60;3.88;;;;;;;11.44;100.00;98011.44;5172412;27;20049;-94
2024/02/09 03:18:26;;;;;;;7.05;3.53;;;;;;;11.60;100.00;98037.41;5172825;27;20095;-94
2024/02/09 03:20:55;;;;;;;12.18;3.80;;;;;;;11.46;100.00;98014.06;5173586;27;20121;-93
2024/02/09 03:23:22;;;;;;;8.52;4.25;;;;;;;11.41;100.00;98008.06;5173307;27;20039;-94
2024/02/09 03:25:48;;;;;;;9.13;4.00;;;;;;;11.54;100.00;98027.03;5171876;27;20034;-95
2024/02/09 03:28:14;;;;;;;8.02;3.55;;;;;;;11.44;100.00;98021.25;5172568;27;20023;-94
2024/02/09 03:30:40;;;;;;;11.23;3.83;;;;;;;11.39;100.00;98001.94;5175597;27;20060;-94
2024/02/09 03:33:06;;;;;;;10.07;4.15;;;;;;;11.01;100.00;97957.38;5173522;27;20039;-93
2024/02/09 03:35:33;;;;;;;9.95;4.40;;;;;;;11.48;100.00;98020.19;5169451;27;20380;-96
2024/02/09 03:37:59;;;;;;;14.02;3.53;;;;;;;11.58;100.00;98029.53;5173064;27;20049;-95
2024/02/09 03:40:26;;;;;;;9.07;3.67;;;;;;;11.47;100.00;98024.66;5174266;27;20035;-93
2024/02/09 03:42:52;;;;;;;11.35;4.38;;;;;;;11.32;100.00;98001.34;5174528;27;20095;-94
2024/02/09 03:45:18;;;;;;;9.43;3.47;;;;;;;11.43;100.00;98003.56;5174890;27;20055;-94
2024/02/09 03:47:44;;;;;;;9.63;3.72;;;;;;;11.49;100.00;98008.59;5175472;27;20034;-95
2024/02/09 03:50:10;;;;;;;10.52;3.60;;;;;;;11.42;100.00;97996.47;5172857;27;20047;-95
2024/02/09 03:52:37;;;;;;;6.32;3.63;;;;;;;11.23;100.00;97976.00;5171028;27;20039;-95
2024/02/09 03:55:04;;;;;;;8.45;3.63;;;;;;;11.22;100.00;97981.38;5172234;27;20050;-94
2024/02/09 03:57:31;;;;;;;7.75;3.28;;;;;;;11.25;100.00;97987.41;5171776;27;20022;-94
2024/02/09 03:59:58;;;;;;;13.77;3.95;;;;;;;11.28;100.00;97987.28;5170547;27;20134;-94
2024/02/09 04:02:24;;;;;;;8.27;3.90;;;;;;;11.19;100.00;97986.81;5171464;27;20039;-94
2024/02/09 04:04:49;;;;;;;7.25;3.50;;;;;;;11.03;100.00;97974.13;5167546;27;20047;-93
2024/02/09 04:07:20;;;;;;;8.07;3.85;;;;;;;11.04;100.00;97969.72;5179697;27;20399;-94
2024/02/09 04:09:46;;;;;;;7.53;3.22;;;;;;;11.13;100.00;97993.25;5173198;27;20043;-93
2024/02/09 04:12:12;;;;;;;13.48;4.72;;;;;;;11.14;100.00;98004.75;5174296;27;20050;-94
2024/02/09 04:14:40;;;;;;;9.85;3.85;;;;;;;11.13;100.00;98003.06;5172070;27;20043;-94
2024/02/09 04:17:06;;;;;;;7.47;3.65;;;;;;;10.86;100.00;97961.56;5162108;27;20066;-94
2024/02/09 04:19:34;;;;;;;9.93;4.20;;;;;;;10.93;100.00;97987.88;5160784;27;20491;-93
2024/02/09 04:22:00;;;;;;;9.68;4.05;;;;;;;11.06;100.00;98005.97;5156427;27;20080;-94
2024/02/09 04:24:27;;;;;;;11.25;3.85;;;;;;;10.92;100.00;97999.47;5156959;27;20031;-93
2024/02/09 04:26:54;;;;;;;7.72;3.72;;;;;;;10.85;100.00;97974.91;5159407;27;20039;-94
2024/02/09 04:29:20;;;;;;;8.63;3.38;;;;;;;10.66;100.00;97958.84;5157368;27;20121;-94
2024/02/09 04:31:47;;;;;;;8.98;3.28;;;;;;;10.92;100.00;98008.31;5159142;27;20436;-95
2024/02/09 04:34:14;;;;;;;9.60;4.10;;;;;;;10.77;100.00;97995.63;5156836;27;20035;-93
2024/02/09 04:36:41;;;;;;;6.63;3.22;;;;;;;10.85;100.00;98015.66;5157777;27;20019;-92
2024/02/09 04:39:10;;;;;;;10.55;3.95;;;;;;;10.86;100.00;98012.09;5154895;27;20131;-95
2024/02/09 04:41:36;;;;;;;6.88;3.28;;;;;;;10.86;100.00;97990.81;5158675;27;20030;-93
2024/02/09 04:44:02;;;;;;;7.30;2.88;;;;;;;10.89;100.00;97996.00;5156604;27;20042;-92
2024/02/09 04:46:28;;;;;;;10.20;3.88;;;;;;;10.76;100.00;97984.13;5155890;27;20484;-92
2024/02/09 04:48:56;;;;;;;9.65;3.80;;;;;;;10.45;100.00;97957.88;5158565;27;20041;-94
2024/02/09 04:51:22;;;;;;;10.20;3.85;;;;;;;10.65;100.00;97973.94;5157609;27;20035;-93
2024/02/09 04:53:48;;;;;;;6.38;3.60;;;;;;;10.58;100.00;97943.22;5155051;27;20035;-94
2024/02/09 04:56:22;;;;;;;9.38;3.58;;;;;;;10.84;100.00;98000.66;5159115;27;20091;-94
2024/02/09 04:58:49;;;;;;;8.68;3.80;;;;;;;10.64;100.00;97942.94;5157272;27;20121;-94
2024/02/09 05:01:27;;;;;;;7.00;4.07;;;;;;;10.69;100.00;97948.94;5156149;27;20623;-93
2024/02/09 05:03:53;;;;;;;11.50;3.67;;;;;;;11.10;100.00;97993.38;5154927;27;20046;-94
2024/02/09 05:06:21;;;;;;;10.32;3.83;;;;;;;11.12;100.00;97985.34;5155075;27;20069;-93
2024/02/09 05:08:47;;;;;;;9.38;3.97;;;;;;;10.98;100.00;97948.69;5156703;27;20042;-93
2024/02/09 05:11:13;;;;;;;8.38;3.65;;;;;;;10.98;100.00;97943.34;5157202;27;20095;-93
2024/02/09 05:13:39;;;;;;;11.88;3.83;;;;;;;11.31;100.00;97986.28;5157368;27;20039;-95
2024/02/09 05:16:08;;;;;;;9.05;4.28;;;;;;;11.08;100.00;97945.56;5157318;27;20069;-94
2024/02/09 05:18:34;;;;;;;9.45;4.03;;;;;;;11.30;100.00;97965.94;5156260;27;20051;-93
2024/02/09 05:21:00;;;;;;;7.15;3.83;;;;;;;11.20;100.00;97952.16;5151365;27;20129;-94
2024/02/09 05:23:27;;;;;;;7.65;3.17;;;;;;;11.27;100.00;97947.44;5157193;27;20461;-94
2024/02/09 05:25:53;;;;;;;7.60;3.58;;;;;;;11.23;100.00;97948.47;5157512;27;20096;-94
2024/02/09 05:28:20;;;;;;;6.72;3.80;;;;;;;11.25;100.00;97933.31;5157865;27;20034;-94
2024/02/09 05:30:46;;;;;;;6.22;3.58;;;;;;;11.30;100.00;97934.88;5159608;27;20070;-93
2024/02/09 05:33:12;;;;;;;8.40;3.25;;;;;;;11.26;100.00;97916.44;5158101;27;20066;-94
2024/02/09 05:35:40;;;;;;;6.43;3.03;;;;;;;11.45;100.00;97949.31;5153432;27;20058;-93
2024/02/09 05:38:06;;;;;;;8.43;3.92;;;;;;;11.49;100.00;97945.56;5155282;27;20035;-93
2024/02/09 05:40:33;;;;;;;8.85;2.97;;;;;;;11.50;100.00;97952.63;5155380;27;20473;-94
2024/02/09 05:43:00;;;;;;;8.20;3.10;;;;;;;11.41;100.00;97933.53;5157195;27;20092;-92
2024/02/09 05:45:30;;;;;;;8.38;3.78;;;;;;;11.40;100.00;97919.34;5155942;27;20031;-94
2024/02/09 05:47:59;;;;;;;10.20;3.65;;;;;;;11.30;100.00;97904.72;5151207;27;20134;-93
2024/02/09 05:50:26;;;;;;;11.40;3.83;;;;;;;11.52;100.00;97949.91;5152876;27;20038;-93
2024/02/09 05:52:56;;;;;;;10.85;4.00;;;;;;;11.45;100.00;97925.34;5158222;27;20035;-94
2024/02/09 05:55:26;;;;;;;6.72;3.58;;;;;;;11.45;100.00;97937.75;5155336;27;20077;-94
2024/02/09 05:57:55;;;;;;;10.75;3.38;;;;;;;11.35;100.00;97900.06;5155251;27;20131;-93
2024/02/09 06:00:21;;;;;;;7.80;3.28;;;;;;;11.40;100.00;97926.47;5162342;27;20252;-93
2024/02/09 06:02:51;;;;;;;5.93;3.38;;;;;;;11.23;100.00;97866.88;5158101;27;20046;-91
2024/02/09 06:05:31;;;;;;;10.73;3.38;;;;;;;11.63;100.00;97947.63;5162156;27;20043;-94
2024/02/09 06:08:04;;;;;;;9.20;3.45;;;;;;;11.15;100.00;97876.13;5161177;27;20042;-91
2024/02/09 06:10:32;;;;;;;11.43;3.78;;;;;;;11.31;100.00;97914.44;5162522;27;20034;-92
2024/02/09 06:13:00;;;;;;;9.90;3.65;;;;;;;11.49;100.00;97934.03;5160185;27;20090;-94
2024/02/09 06:15:26;;;;;;;8.77;3.35;;;;;;;11.31;100.00;97911.75;5154957;27;20043;-93
2024/02/09 06:17:52;;;;;;;8.00;2.97;;;;;;;11.42;100.00;97909.50;5158676;27;20067;-92
2024/02/09 06:20:22;;;;;;;9.75;4.20;;;;;;;11.62;100.00;97956.53;5158379;27;20095;-93
2024/02/09 06:22:48;;;;;;;10.85;3.63;;;;;;;11.40;100.00;97905.16;5158253;27;20102;-94
2024/02/09 06:25:15;;;;;;;9.75;3.88;;;;;;;11.50;100.00;97910.03;5150088;27;20040;-93
2024/02/09 06:27:41;;;;;;;6.35;2.90;;;;;;;11.63;100.00;97922.78;5157216;27;20042;-93
2024/02/09 06:30:11;;;;;;;6.32;3.40;;;;;;;11.84;100.00;97948.47;5157004;27;20065;-92
2024/02/09 06:32:37;;;;;;;9.27;3.78;;;;;;;11.69;100.00;97934.03;5158723;27;20125;-93
2024/02/09 06:35:04;;;;;;;8.40;3.35;;;;;;;11.68;100.00;97924.28;5155315;27;20054;-94
2024/02/09 06:37:30;;;;;;;8.00;3.28;;;;;;;11.69;100.00;97917.19;5160253;27;20030;-94
2024/02/09 06:39:55;;;;;;;8.80;2.92;;;;;;;11.58;100.00;97885.72;5158194;27;20038;-94
2024/02/09 06:42:21;;;;;;;7.78;3.58;;;;;;;11.75;100.00;97911.56;5157622;27;20049;-94
2024/02/09 06:44:48;;;;;;;7.28;3.47;;;;;;;11.42;100.00;97850.06;5157297;27;20043;-93
2024/02/09 06:47:15;;;;;;;11.30;3.42;;;;;;;11.68;100.00;97913.66;5155883;27;20018;-94
2024/02/09 06:49:44;;;;;;;9.73;3.60;;;;;;;11.62;100.00;97924.56;5152337;27;20070;-92
2024/02/09 06:52:10;;;;;;;6.93;3.28;;;;;;;11.37;100.00;97868.91;5156483;27;20069;-92
2024/02/09 06:54:36;;;;;;;9.02;3.80;;;;;;;11.63;100.00;97928.13;5155552;27;20035;-94
2024/02/09 06:57:01;;;;;;;6.30;3.83;;;;;;;11.75;100.00;97945.34;5157324;27;20061;-94
2024/02/09 06:59:27;;;;;;;6.55;3.47;;;;;;;11.56;100.00;97916.00;5151864;27;20111;-93
2024/02/09 07:01:55;;;;;;;9.98;3.22;;;;;;;11.37;100.00;97881.38;5155626;27;20035;-93
2024/02/09 07:04:23;;;;;;;12.20;3.30;;;;;;;11.78;100.00;97939.88;5155140;27;20091;-93
2024/02/09 07:06:51;;;;;;;8.52;4.18;;;;;;;11.68;100.00;97929.63;5157341;27;20038;-94
2024/02/09 07:09:18;;;;;;;12.38;3.30;;;;;;;11.74;100.00;97914.31;5156052;27;20062;-93
2024/02/09 07:11:45;;;;;;;8.13;3.80;;;;;;;11.82;100.00;97904.16;5160565;27;20083;-93
2024/02/09 07:14:11;;;;;;;13.15;3.78;;;;;;;12.03;100.00;97940.50;5156397;27;20051;-95
2024/02/09 07:16:53;;;;;;;11.20;4.05;;;;;;;11.59;100.00;97878.59;5158541;27;20043;-94
2024/02/09 07:19:24;;;;;;;9.18;3.22;;;;;;;11.89;100.00;97908.31;5157855;27;20091;-94
2024/02/09 07:21:51;;;;;;;8.00;3.00;;;;;;;11.81;100.00;97883.78;5148265;27;20440;-95
2024/02/09 07:24:28;;;;;;;8.80;4.70;;;;;;;12.23;100.00;97960.03;5154582;27;20043;-94
2024/02/09 07:26:58;;;;;;;7.43;3.00;;;;;;;12.27;100.00;97942.97;5153730;27;20047;-92
2024/02/09 07:29:24;;;;;;;7.28;3.40;;;;;;;12.11;100.00;97924.16;5156413;27;20074;-93
2024/02/09 07:31:50;;;;;;;8.20;3.10;;;;;;;12.23;100.00;97934.25;5155610;27;20034;-94
2024/02/09 07:34:16;;;;;;;10.52;3.47;;;;;;;12.31;100.00;97929.41;5156753;27;20019;-92
2024/02/09 07:36:46;;;;;;;15.40;3.45;;;;;;;12.41;100.00;97929.00;5157199;27;20115;-94
2024/02/09 07:39:12;;;;;;;9.55;3.40;;;;;;;12.40;100.00;97904.09;5155138;27;20042;-92
2024/02/09 07:41:38;;;;;;;7.05;3.45;;;;;;;12.54;100.00;97920.31;5153045;27;20047;-93
2024/02/09 07:44:04;;;;;;;11.98;4.70;;;;;;;12.48;100.00;97907.28;5153331;27;20114;-93
2024/02/09 07:46:31;;;;;;;11.23;4.07;;;;;;;12.41;100.00;97886.34;5155889;27;20391;-93
2024/02/09 07:48:56;;;;;;;10.85;3.42;;;;;;;12.26;100.00;97856.81;5152796;27;20112;-94
2024/02/09 07:51:22;;;;;;;9.25;2.85;;;;;;;12.64;100.00;97907.41;5157703;27;20066;-93
2024/02/09 07:53:52;;;;;;;10.05;3.08;;;;;;;12.63;100.00;97928.81;5158073;27;20046;-94
2024/02/09 07:56:18;;;;;;;12.88;3.58;;;;;;;12.15;100.00;97860.94;5158631;27;20053;-95
2024/02/09 07:58:44;;;;;;;9.20;3.40;;;;;;;12.31;100.00;97865.44;5160101;27;20057;-94
2024/02/09 08:01:10;;;;;;;10.13;3.15;;;;;;;12.51;100.00;97877.81;5158199;27;20038;-93
2024/02/09 08:03:38;;;;;;;11.02;2.95;;;;;;;12.72;100.00;97907.00;5155997;27;20133;-95
2024/02/09 08:06:04;;;;;;;12.05;3.88;;;;;;;12.78;100.00;97887.19;5160419;27;20054;-92
2024/02/09 08:08:30;;;;;;;9.55;3.78;;;;;;;12.61;100.00;97861.34;5159368;27;20039;-95
2024/02/09 08:10:57;;;;;;;11.15;3.95;;;;;;;12.78;100.00;97904.06;5160149;27;20087;-93
2024/02/09 08:13:23;;;;;;;8.73;3.35;;;;;;;12.84;100.00;97893.06;5156950;27;20061;-94
2024/02/09 08:15:49;;;;;;;11.55;4.15;;;;;;;12.82;100.00;97891.44;5155882;27;20042;-95
2024/02/09 08:18:15;;;;;;;7.78;3.28;;;;;;;12.56;100.00;97834.06;5155743;27;20034;-93
2024/02/09 08:20:41;;;;;;;7.63;3.20;;;;;;;13.08;100.00;97895.44;5156869;27;20047;-94
2024/02/09 08:23:07;;;;;;;9.82;3.35;;;;;;;13.03;100.00;97886.78;5159228;27;20038;-94
2024/02/09 08:25:33;;;;;;;10.10;4.30;;;;;;;12.94;100.00;97870.28;5159796;27;20060;-95
2024/02/09 08:28:00;;;;;;;10.20;3.33;;;;;;;12.67;100.00;97832.56;5159021;27;20035;-94
2024/02/09 08:30:26;;;;;;;13.43;3.53;;;;;;;12.93;100.00;97876.59;5158941;27;20039;-92
2024/02/09 08:32:53;;;;;;;10.93;3.50;;;;;;;12.84;100.00;97844.19;5160511;27;20083;-95
2024/02/09 08:35:19;;;;;;;7.72;3.17;;;;;;;13.11;100.00;97882.78;5158302;27;20107;-94
2024/02/09 08:37:45;;;;;;;11.82;3.50;;;;;;;13.10;100.00;97869.53;5158723;27;20064;-95
2024/02/09 08:40:11;;;;;;;8.85;3.08;;;;;;;13.12;100.00;97868.50;5159292;27;20046;-94
2024/02/09 08:42:37;;;;;;;13.30;3.50;;;;;;;13.19;100.00;97903.75;5158643;27;20043;-94
2024/02/09 08:45:05;;;;;;;8.93;3.25;;;;;;;13.22;100.00;97886.72;5155320;27;20126;-94
2024/02/09 08:47:34;;;;;;;8.88;4.05;;;;;;;13.18;100.00;97859.31;5157901;27;20073;-94
2024/02/09 08:50:00;;;;;;;11.40;3.97;;;;;;;13.39;100.00;97889.41;5156449;27;20042;-95
2024/02/09 08:52:26;;;;;;;8.50;4.20;;;;;;;13.38;100.00;97868.09;5155826;27;20038;-94
2024/02/09 08:54:52;;;;;;;13.05;4.57;;;;;;;13.33;100.00;97860.34;5154342;27;20119;-91
2024/02/09 08:57:18;;;;;;;13.38;4.45;;;;;;;13.56;100.00;97880.50;5156355;27;20507;-94
2024/02/09 08:59:44;;;;;;;12.75;4.72;;;;;;;13.01;100.00;97797.94;5156131;27;20046;-92
2024/02/09 09:02:11;;;;;;;14.68;4.13;;;;;;;13.32;100.00;97839.94;5153488;27;20046;-94
2024/02/09 09:04:37;;;;;;;12.52;4.55;;;;;;;13.25;100.00;97831.38;5154162;27;20071;-94
2024/02/09 09:07:03;;;;;;;13.38;4.57;;;;;;;13.44;100.00;97860.63;5153546;27;20469;-93
2024/02/09 09:09:30;;;;;;;16.27;3.65;;;;;;;13.58;100.00;97878.59;5158530;27;20129;-92
2024/02/09 09:11:57;;;;;;;7.68;3.25;;;;;;;13.17;100.00;97820.22;5152385;27;20046;-92
2024/02/09 09:14:25;;;;;;;7.88;3.28;;;;;;;13.42;100.00;97861.66;5156338;27;20038;-94
2024/02/09 09:16:52;;;;;;;6.25;3.08;;;;;;;13.23;100.00;97813.66;5156055;27;20038;-94
2024/02/09 09:19:19;;;;;;;5.90;2.85;;;;;;;13.43;100.00;97842.03;5154940;27;20035;-93
2024/02/09 09:21:45;;;;;;;9.38;3.28;;;;;;;13.65;100.00;97866.63;5155072;27;20042;-92
2024/02/09 09:24:13;;;;;;;8.45;3.70;;;;;;;13.40;100.00;97831.50;5156037;27;20107;-95
2024/02/09 09:26:39;;;;;;;14.43;3.55;;;;;;;13.16;100.00;97823.81;5155331;27;20041;-91
2024/02/09 09:29:05;;;;;;;12.68;3.63;;;;;;;13.40;100.00;97844.84;5155518;27;20043;-94
2024/02/09 09:31:31;;;;;;;8.50;3.13;;;;;;;13.43;100.00;97868.75;5157669;27;20042;-94
2024/02/09 09:33:57;;;;;;;7.72;2.95;;;;;;;13.48;100.00;97872.03;5155779;27;20043;-94
2024/02/09 09:36:30;;;;;;;11.88;3.10;;;;;;;13.55;100.00;97879.66;5156091;27;20034;-95
2024/02/09 09:38:56;;;;;;;13.35;2.72;;;;;;;13.37;100.00;97837.03;5156587;27;20112;-93
2024/02/09 09:41:22;;;;;;;8.55;3.15;;;;;;;13.60;100.00;97894.53;5157392;27;20054;-92
2024/02/09 09:43:49;;;;;;;12.50;3.38;;;;;;;13.63;100.00;97881.03;5155585;27;20038;-93
2024/02/09 09:46:18;;;;;;;7.13;3.13;;;;;;;13.55;100.00;97876.97;5158400;27;20031;-93
2024/02/09 09:48:44;;;;;;;8.13;2.97;;;;;;;13.65;100.00;97890.69;5160308;27;20035;-91
2024/02/09 09:51:12;;;;;;;10.70;3.88;;;;;;;13.29;100.00;97834.75;5157278;27;20030;-92
2024/02/09 09:53:42;;;;;;;13.40;3.25;;;;;;;13.41;100.00;97863.47;5154728;27;20074;-91
2024/02/09 09:56:09;;;;;;;14.00;2.97;;;;;;;13.11;100.00;97837.41;5156922;27;20452;-94
2024/02/09 09:58:37;;;;;;;13.18;3.40;;;;;;;13.40;100.00;97903.59;5147135;27;20055;-92
2024/02/09 10:01:06;;;;;;;13.82;3.60;;;;;;;13.41;100.00;97902.69;5154920;27;20540;-92
2024/02/09 10:03:32;;;;;;;9.48;3.13;;;;;;;13.39;100.00;97888.53;5154038;27;20541;-93
2024/02/09 10:05:58;;;;;;;12.32;3.50;;;;;;;13.38;100.00;97898.38;5158352;27;20049;-95
2024/02/09 10:08:24;;;;;;;6.53;2.88;;;;;;;13.28;100.00;97873.06;5157036;27;20043;-93
2024/02/09 10:10:52;;;;;;;11.70;3.67;;;;;;;13.29;100.00;97873.00;5154231;27;20091;-93
2024/02/09 10:13:22;;;;;;;11.95;4.30;;;;;;;13.07;100.00;97846.50;5152864;27;20056;-93
2024/02/09 10:15:51;;;;;;;9.82;3.53;;;;;;;13.30;100.00;97866.72;5151040;27;20042;-94
2024/02/09 10:18:17;;;;;;;11.88;3.65;;;;;;;12.94;100.00;97824.94;5157009;27;20043;-92
2024/02/09 10:20:48;;;;;;;9.95;3.40;;;;;;;13.49;100.00;97884.44;5153505;27;20038;-92
2024/02/09 10:23:14;;;;;;;17.95;3.45;;;;;;;12.99;100.00;97797.16;5157146;27;20055;-91
2024/02/09 10:25:42;;;;;;;9.43;3.55;;;;;;;13.06;100.00;97791.41;5152803;27;20034;-94
2024/02/09 10:28:12;;;;;;;7.90;3.17;;;;;;;13.56;100.00;97861.81;5156048;27;20073;-92
2024/02/09 10:30:38;;;;;;;6.75;3.28;;;;;;;13.46;100.00;97824.03;5152974;27;20042;-93
2024/02/09 10:33:06;;;;;;;14.88;3.47;;;;;;;13.53;100.00;97845.91;5157114;27;20049;-91
2024/02/09 10:35:33;;;;;;;14.43;3.92;;;;;;;13.43;100.00;97826.03;5154747;27;20043;-92
2024/02/09 10:37:59;;;;;;;13.98;3.33;;;;;;;13.55;100.00;97828.91;5157942;27;20051;-92
2024/02/09 10:40:25;;;;;;;11.05;3.45;;;;;;;13.55;100.00;97809.31;5156649;27;20475;-93
2024/02/09 10:42:52;;;;;;;16.83;4.32;;;;;;;13.29;100.00;97766.22;5155675;27;20102;-92
2024/02/09 10:45:20;;;;;;;26.17;8.25;;;;;;;13.51;100.00;97791.72;5154447;27;20061;-93
2024/02/09 10:47:48;;;;;;;28.73;6.75;;;;;;;13.68;100.00;97793.47;5153794;27;20035;-93
2024/02/09 10:50:15;;;;;;;14.70;4.35;;;;;;;13.69;100.00;97780.03;5155894;27;20038;-94
2024/02/09 10:52:48;;;;;;;16.30;4.88;;;;;;;13.82;100.00;97803.41;5154351;27;20038;-93
2024/02/09 10:55:20;;;;;;;18.08;5.07;;;;;;;14.15;100.00;97814.00;5154559;27;20043;-93
2024/02/09 10:57:49;;;;;;;17.02;5.45;;;;;;;14.12;100.00;97793.66;5154700;27;20489;-93
2024/02/09 11:00:16;;;;;;;16.10;4.82;;;;;;;14.23;100.00;97782.34;5149359;27;20138;-94
2024/02/09 11:02:44;;;;;;;14.13;4.85;;;;;;;14.35;100.00;97805.69;5151834;27;20062;-93
2024/02/09 11:05:14;;;;;;;12.23;4.97;;;;;;;14.34;100.00;97797.78;5154158;27;20095;-93
2024/02/09 11:07:42;;;;;;;18.10;3.90;;;;;;;14.43;100.00;97805.25;5152258;27;20129;-94
2024/02/09 11:10:09;;;;;;;12.93;3.55;;;;;;;14.35;100.00;97776.28;5155311;27;20034;-93
2024/02/09 11:12:34;;;;;;;8.85;3.83;;;;;;;14.38;100.00;97789.47;5154802;27;20039;-91
2024/02/09 11:15:12;;;;;;;8.50;3.05;;;;;;;14.14;100.00;97754.34;5156982;27;20059;-94
2024/02/09 11:17:44;;;;;;;8.20;2.83;;;;;;;14.18;100.00;97738.97;5154577;27;20552;-93
2024/02/09 11:20:12;;;;;;;11.75;3.28;;;;;;;14.04;100.00;97712.19;5153126;27;20047;-94
2024/02/09 11:22:38;;;;;;;14.45;3.35;;;;;;;14.22;100.00;97742.31;5154261;27;20083;-94
2024/02/09 11:25:08;;;;;;;10.52;3.35;;;;;;;14.26;100.00;97750.06;5155483;27;20035;-93
2024/02/09 11:27:33;;;;;;;18.20;3.35;;;;;;;14.26;100.00;97727.81;5156992;27;20049;-94
2024/02/09 11:29:59;;;;;;;8.75;4.30;;;;;;;14.33;100.00;97734.53;5157177;27;20110;-94
2024/02/09 11:32:27;;;;;;;8.77;3.13;;;;;;;13.94;100.00;97690.44;5159296;27;20039;-94
2024/02/09 11:34:56;;;;;;;10.70;3.35;;;;;;;14.22;100.00;97687.03;5158454;27;20519;-91
2024/02/09 11:37:23;;;;;;;14.30;3.38;;;;;;;14.41;100.00;97710.88;5158681;27;20058;-93
2024/02/09 11:39:50;;;;;;;11.50;3.65;;;;;;;14.31;100.00;97715.91;5156423;27;20019;-93
2024/02/09 11:42:17;;;;;;;10.90;3.10;;;;;;;13.95;100.00;97678.81;5157707;27;20046;-95
2024/02/09 11:44:43;;;;;;;10.82;2.97;;;;;;;14.28;100.00;97721.44;5155169;27;20068;-92
2024/02/09 11:47:10;;;;;;;13.63;3.58;;;;;;;14.27;100.00;97713.50;5155749;27;20554;-94
2024/02/09 11:49:38;;;;;;;9.13;3.42;;;;;;;14.06;100.00;97665.69;5160521;27;20038;-92
2024/02/09 11:52:08;;;;;;;12.98;3.13;;;;;;;14.26;100.00;97726.00;5157667;27;20413;-93
2024/02/09 11:54:34;;;;;;;11.57;3.92;;;;;;;13.95;100.00;97673.47;5157392;27;20034;-92
2024/02/09 11:57:00;;;;;;;13.02;4.00;;;;;;;13.95;100.00;97646.75;5158487;27;20034;-92
2024/02/09 11:59:29;;;;;;;12.73;4.20;;;;;;;13.95;100.00;97641.41;5158334;27;20042;-93
2024/02/09 12:01:58;;;;;;;16.05;4.80;;;;;;;14.14;100.00;97679.47;5157003;27;20057;-93
2024/02/09 12:04:24;;;;;;;19.20;3.85;;;;;;;14.30;100.00;97697.28;5155176;27;20054;-95
2024/02/09 12:06:52;;;;;;;8.75;3.63;;;;;;;14.14;100.00;97639.38;5158223;27;20045;-92
2024/02/09 12:09:20;;;;;;;7.63;3.03;;;;;;;14.46;100.00;97683.84;5155884;27;20053;-93
2024/02/09 12:11:46;;;;;;;9.32;3.55;;;;;;;14.12;100.00;97621.72;5154540;27;20121;-92
2024/02/09 12:14:12;;;;;;;9.75;3.83;;;;;;;14.33;100.00;97647.16;5155224;27;20063;-92
2024/02/09 12:16:38;;;;;;;13.60;4.22;;;;;;;14.41;100.00;97649.34;5149935;27;20030;-93
2024/02/09 12:19:05;;;;;;;17.17;4.38;;;;;;;14.43;100.00;97647.44;5156234;27;20494;-95
2024/02/09 12:21:31;;;;;;;12.70;4.80;;;;;;;14.20;100.00;97616.75;5155162;27;20039;-90
2024/02/09 12:23:58;;;;;;;12.68;3.55;;;;;;;14.51;100.00;97647.84;5156223;27;20038;-93
2024/02/09 12:26:25;;;;;;;12.05;4.28;;;;;;;14.37;100.00;97572.94;5151578;27;20046;-92
2024/02/09 12:28:51;;;;;;;12.32;4.03;;;;;;;14.70;100.00;97626.22;5156018;27;20043;-92
2024/02/09 12:31:19;;;;;;;11.77;3.88;;;;;;;14.76;100.00;97604.41;5152701;27;20397;-92
2024/02/09 12:33:46;;;;;;;12.98;3.80;;;;;;;14.75;100.00;97592.00;5158283;27;20080;-93
2024/02/09 12:36:13;;;;;;;15.15;4.20;;;;;;;14.79;99.19;97574.78;5158334;27;20042;-94
2024/02/09 12:38:41;;;;;;;12.93;4.07;;;;;;;14.89;98.71;97585.75;5159307;27;20042;-94
2024/02/09 12:41:07;;;;;;;8.95;3.67;;;;;;;15.03;98.78;97600.06;5158263;27;20042;-94
2024/02/09 12:43:35;;;;;;;10.25;3.85;;;;;;;14.91;98.71;97573.13;5157002;27;20043;-93
2024/02/09 12:46:02;;;;;;;9.63;4.28;;;;;;;15.05;98.26;97568.72;5158345;27;20035;-93
2024/02/09 12:48:28;;;;;;;15.63;4.45;;;;;;;15.15;98.28;97588.59;5158976;27;20038;-91
2024/02/09 12:50:56;;;;;;;13.70;4.00;;;;;;;14.88;99.81;97585.88;5156734;27;20106;-92
2024/02/09 12:53:22;;;;;;;12.05;4.03;;;;;;;14.59;96.94;97540.38;5161179;27;20035;-95
2024/02/09 12:55:49;;;;;;;8.80;3.55;;;;;;;14.93;95.97;97592.63;5155307;27;20061;-93
2024/02/09 12:58:15;;;;;;;13.07;4.10;;;;;;;14.69;95.63;97536.19;5155862;27;20396;-93
2024/02/09 13:00:44;;;;;;;8.73;3.65;;;;;;;14.85;95.64;97567.31;5160633;27;20047;-95
2024/02/09 13:03:10;;;;;;;11.13;3.65;;;;;;;14.80;95.76;97551.56;5161730;27;20038;-93
2024/02/09 13:05:36;;;;;;;18.95;4.07;;;;;;;14.77;95.61;97554.44;5157869;27;20050;-93
2024/02/09 13:08:02;;;;;;;10.82;3.50;;;;;;;14.85;95.68;97544.06;5160425;27;20046;-93
2024/02/09 13:10:28;;;;;;;16.05;4.53;;;;;;;14.93;95.40;97539.09;5159750;27;20400;-93
2024/02/09 13:12:54;;;;;;;13.13;4.05;;;;;;;14.89;94.71;97521.50;5156111;27;20028;-92